Elbow, Canada
Current Conditions -  °F | °C
As of 6:00 PM on Tuesday 21 Oct 2014 (Local Time) from CYMJ Reporting Station
Broken Clouds Broken Clouds  
Wind Chill: 66°   Ceiling: 14000
Heat Index: 66°   Visibility: 15mi
Dew Point: 48°   Wind: 6mph
Humidity: 52%   Direction: 190°S
Pressure: 29.55"   Gusts: NA
Location:  51.12°N, 106.6°W
Report Text: CYMJ 220000Z 19005KT 15SM BKN140 BKN280 19/09 A2955 RMK AC5CI0SLP015
Loading
Personal Weather Stations






























Interactive Weather Map
Tropical Storm Tracking
New forecast layout! Learn more

10-Day Weather Forecast

Advertisements
Track Severe Weather on mobile